Coats - southern half: Past 24 Hour Conditions

 

Pangnirtung Airport

01:00 PM EDT 24 October 2014
This table is a summary of hourly weather conditions for the past 24 hours.
Date / Time
(EDT)
Wind(knots) Conditions Visibility(km) Pressure(kPa) Air tempC) Relative humidity(%) Dew pointC) Wind Chill
24 October 2014
13:00 W 13 gust 26 Sunny 24 101.9 -12 64 -18 -21
12:00 NW 16 gust 21 Drifting Snow 24 101.8 -12 61 -18 -22
11:00 NW 11 gust 21 Drifting Snow 24 101.8 -13 62 -18 -21
10:00 NW 18 gust 23 Drifting Snow 24 101.6 -12 66 -17 -23
9:00 WSW 6 Mainly Sunny 24 101.7 -13 62 -19 -19
8:00 W 11 gust 21 Drifting Snow 24 101.7 -13 63 -18 -21
7:00 WSW 20 Partly Cloudy 24 101.6 -13 64 -18 -24
6:00 NW 5 gust 15 N/A N/A 101.6 -12 57 -19 -18
5:00 WNW 7 gust 15 N/A N/A 101.5 -13 63 -18 -19
4:00 WNW 9 gust 18 N/A N/A 101.4 -12 66 -17 -20
3:00 W 13 gust 21 N/A N/A 101.3 -12 68 -17 -22
2:00 NW 9 N/A N/A 101.3 -13 65 -18 -20
1:00 NW 11 gust 19 N/A N/A 101.3 -13 67 -18 -22
0:00 NW 8 N/A N/A 101.3 -14 67 -19 -21
23 October 2014
23:00 W 9 N/A N/A 101.4 -13 62 -19 -22
22:00 N 4 N/A N/A 101.5 -14 57 -21 -19
21:00 SW 6 N/A N/A 101.5 -15 52 -22 -21
20:00 W 14 gust 24 N/A N/A 101.5 -15 54 -23 -26
19:00 WSW 14 gust 20 N/A N/A 101.4 -15 61 -21 -26
18:00 W 18 gust 24 Drifting Snow 24 101.4 -15 61 -21 -26
17:00 W 15 gust 23 Drifting Snow 24 101.4 -15 61 -21 -26
16:00 W 19 gust 29 Drifting Snow 24 101.3 -15 61 -21 -26
15:00 W 14 gust 23 Drifting Snow 24 101.3 -14 61 -20 -24
14:00 WSW 11 gust 22 Drifting Snow 24 101.2 -13 50 -21 -21
13:00 N 9 Sunny 24 101.0 -11 41 -22 -18
 
Map of Arctic - Eastern Arctic marine weather areas Baker Lake Airport Chesterfield Inlet Airport Coral Harbour Airport Gjoa Haven Airport Kugaaruk Airport Rankin Inlet Airport Shepherd Bay Airport Whale Cove Airport Arctic Bay Brevoort Island Qikiqtarjuaq Airport Cape Dorset Airport Cape Dyer Cape Hooper Clyde Airport Grise Fiord Airport Hall Beach Airport Igloolik Airport Iqaluit Airport Longstaff Bluff Pangnirtung Airport Pond Inlet Airport Repulse Bay Airport Resolute Airport Resolution Island Rowley Island Airport Taloyoak Airport Wager Bay Akulivik Airport Ivujivik Airport Puvirnituq Airport Kangiqsujuaq Airport Kangirsuk Airport Quaqtaq Airport Tasiujaq Airport Cape Kakkiviak Cape Kiglapait Nain Airport Saglek Cape Mercy Kimmirut Airport Aupaluk Airport Salluit Airport Kangiqsualujjuaq Airport Fort Ross
Legend: buoyBuoy land stationLand Station